createdAt,value
2023-05-10T08:02:35.452Z,16.90
2023-05-10T08:05:03.960Z,17.20
2023-05-10T08:07:32.302Z,17.20
2023-05-10T08:10:00.383Z,17.00
2023-05-10T08:12:28.583Z,16.70
2023-05-10T08:14:59.118Z,17.10
2023-05-10T08:17:30.209Z,17.60
2023-05-10T08:19:59.913Z,17.80
2023-05-10T08:22:28.521Z,18.10
2023-05-10T08:24:56.770Z,17.70
2023-05-10T08:27:25.044Z,17.20
2023-05-10T08:29:53.274Z,16.90
2023-05-10T08:32:21.350Z,16.70
2023-05-10T08:34:49.606Z,16.60
2023-05-10T08:37:19.104Z,16.40
2023-05-10T08:39:49.014Z,16.50
2023-05-10T08:42:19.132Z,16.80
2023-05-10T08:44:50.103Z,17.30
2023-05-10T08:47:19.104Z,17.20
2023-05-10T08:49:49.768Z,16.40
2023-05-10T08:52:19.796Z,16.50
2023-05-10T08:54:48.354Z,16.90
2023-05-10T08:57:16.552Z,17.10
2023-05-10T08:59:44.955Z,17.00
2023-05-10T09:02:14.749Z,16.90
2023-05-10T09:04:43.920Z,17.40
2023-05-10T09:07:15.052Z,17.50
2023-05-10T09:09:45.005Z,17.60
2023-05-10T09:12:13.508Z,18.10
2023-05-10T09:14:41.772Z,17.70
2023-05-10T09:17:10.204Z,17.10
2023-05-10T09:19:38.652Z,17.00
2023-05-10T09:22:08.971Z,16.50
2023-05-10T09:24:38.040Z,16.30
2023-05-10T09:27:07.608Z,16.50
2023-05-10T09:29:41.359Z,16.20
2023-05-10T09:32:09.704Z,16.80
2023-05-10T09:34:41.109Z,17.60
2023-05-10T09:37:09.412Z,18.40
2023-05-10T09:39:40.353Z,19.10
2023-05-10T09:42:12.400Z,19.40
2023-05-10T09:44:42.010Z,19.30
2023-05-10T09:47:10.424Z,19.20
2023-05-10T09:49:38.726Z,17.80
2023-05-10T09:52:07.524Z,17.60
2023-05-10T09:54:38.117Z,17.30
2023-05-10T09:57:06.531Z,17.50
2023-05-10T09:59:38.299Z,17.70
2023-05-10T10:02:06.605Z,17.40
2023-05-10T10:04:35.046Z,17.20
2023-05-10T10:07:04.877Z,17.90
2023-05-10T10:09:33.825Z,18.90
2023-05-10T10:12:02.094Z,18.40
2023-05-10T10:14:30.631Z,19.10
2023-05-10T10:17:07.703Z,19.30
2023-05-10T10:19:38.050Z,19.80
2023-05-10T10:22:06.721Z,20.20
2023-05-10T10:24:35.193Z,20.50
2023-05-10T10:27:06.508Z,20.50
2023-05-10T10:29:38.075Z,20.60
2023-05-10T10:32:14.129Z,20.70
2023-05-10T10:34:42.594Z,20.70
2023-05-10T10:37:10.838Z,20.50
2023-05-10T10:39:39.050Z,20.60
2023-05-10T10:42:07.637Z,20.80
2023-05-10T10:44:37.682Z,21.10
2023-05-10T10:47:25.942Z,21.20
2023-05-10T10:50:04.895Z,21.10
2023-05-10T10:52:34.502Z,21.20
2023-05-10T10:57:33.621Z,20.60
2023-05-10T11:00:21.108Z,20.30
2023-05-10T11:02:50.448Z,21.00
2023-05-10T11:05:36.736Z,21.30
2023-05-10T11:08:09.714Z,21.30
2023-05-10T11:10:38.060Z,20.30
2023-05-10T11:13:07.121Z,19.20
2023-05-10T11:15:35.936Z,19.10
2023-05-10T11:18:19.085Z,18.30
2023-05-10T11:20:52.244Z,18.00
2023-05-10T11:23:22.158Z,17.70
2023-05-10T11:25:52.973Z,17.60
2023-05-10T11:28:21.602Z,17.10
2023-05-10T11:30:49.878Z,18.10
2023-05-10T11:33:19.194Z,17.90
2023-05-10T11:35:48.927Z,17.70
2023-05-10T11:38:17.127Z,17.20
2023-05-10T11:40:45.688Z,17.00
2023-05-10T11:43:13.884Z,17.10
2023-05-10T11:45:43.411Z,17.40
2023-05-10T11:48:11.586Z,17.10
2023-05-10T11:50:39.790Z,17.60
2023-05-10T11:53:09.427Z,17.40
2023-05-10T11:55:37.736Z,17.20
2023-05-10T11:58:06.338Z,17.60
2023-05-10T12:00:37.180Z,18.50
2023-05-10T12:03:05.748Z,17.80
2023-05-10T12:05:34.966Z,17.00
2023-05-10T12:08:17.685Z,16.70
2023-05-10T12:10:46.084Z,17.00
2023-05-10T12:13:15.335Z,16.60
2023-05-10T12:15:43.775Z,17.10
2023-05-10T12:18:12.765Z,16.50
2023-05-10T12:20:41.537Z,16.60
2023-05-10T12:23:11.038Z,17.00
2023-05-10T12:25:41.197Z,16.90
2023-05-10T12:28:10.493Z,16.80
2023-05-10T12:30:39.011Z,17.10
2023-05-10T12:33:10.578Z,16.90
2023-05-10T12:35:46.336Z,17.30
2023-05-10T12:38:34.461Z,16.90
2023-05-10T12:41:05.295Z,16.70
2023-05-10T12:43:35.848Z,16.00
2023-05-10T12:46:08.513Z,16.20
2023-05-10T12:48:36.829Z,16.80
2023-05-10T12:51:05.852Z,16.80
2023-05-10T12:53:34.011Z,16.50
2023-05-10T12:56:03.695Z,16.50
2023-05-10T12:58:35.883Z,17.10
2023-05-10T13:01:05.861Z,18.30
2023-05-10T13:03:34.362Z,19.10
2023-05-10T13:06:02.478Z,19.00
2023-05-10T13:08:34.422Z,18.80
2023-05-10T13:11:04.991Z,19.70
2023-05-10T13:13:33.130Z,20.30
2023-05-10T13:16:01.388Z,18.60
2023-05-10T13:18:29.543Z,18.90
2023-05-10T13:20:58.022Z,16.90
2023-05-10T13:23:26.215Z,16.20
2023-05-10T13:25:54.432Z,16.60
2023-05-10T13:28:24.083Z,17.60
2023-05-10T13:30:52.199Z,16.60
2023-05-10T13:33:20.513Z,16.80
2023-05-10T13:35:48.607Z,16.70
2023-05-10T13:38:16.885Z,16.50
2023-05-10T13:40:46.154Z,16.60
2023-05-10T13:43:19.248Z,16.70
2023-05-10T13:45:49.090Z,16.50
2023-05-10T13:48:17.264Z,17.40
2023-05-10T13:50:45.403Z,17.20
2023-05-10T13:53:13.917Z,18.00
2023-05-10T13:55:47.193Z,18.70
2023-05-10T13:58:15.345Z,19.30
2023-05-10T14:00:43.516Z,19.70
2023-05-10T14:03:13.571Z,20.30
2023-05-10T14:05:41.763Z,20.80
2023-05-10T14:08:10.525Z,20.40
2023-05-10T14:10:39.209Z,20.40
2023-05-10T14:13:07.440Z,20.40
2023-05-10T14:15:38.141Z,20.50
2023-05-10T14:18:06.470Z,20.80
2023-05-10T14:20:36.624Z,20.90
2023-05-10T14:23:05.010Z,20.60
2023-05-10T14:25:34.321Z,20.70
2023-05-10T14:28:02.695Z,20.70
2023-05-10T14:30:31.958Z,20.50
2023-05-10T14:33:02.546Z,20.40
2023-05-10T14:35:32.066Z,20.50
2023-05-10T14:38:01.645Z,20.60
2023-05-10T14:40:29.989Z,21.00
2023-05-10T14:42:58.321Z,20.40
2023-05-10T14:45:26.580Z,20.70
2023-05-10T14:47:54.714Z,20.80
2023-05-10T14:50:35.980Z,20.90
2023-05-10T14:53:06.982Z,17.80
2023-05-10T14:55:35.826Z,17.20
2023-05-10T14:58:06.013Z,17.70
2023-05-10T15:00:34.239Z,17.60
2023-05-10T15:03:04.075Z,18.00
2023-05-10T15:05:32.749Z,18.70
2023-05-10T15:08:01.554Z,19.30
2023-05-10T15:10:34.538Z,19.70
2023-05-10T15:13:02.956Z,19.70
2023-05-10T15:15:31.200Z,19.70
2023-05-10T15:17:59.618Z,19.80
2023-05-10T15:20:30.838Z,19.80
2023-05-10T15:22:59.052Z,19.90
2023-05-10T15:25:27.650Z,20.40
2023-05-10T15:27:57.387Z,20.20
2023-05-10T15:30:25.550Z,19.80
2023-05-10T15:32:55.929Z,19.90
2023-05-10T15:35:24.286Z,19.80
2023-05-10T15:37:59.628Z,19.80
2023-05-10T15:40:27.936Z,19.60
2023-05-10T15:42:58.769Z,19.80
2023-05-10T15:45:27.683Z,19.60
2023-05-10T15:47:55.856Z,19.60
2023-05-10T15:50:24.075Z,19.60
2023-05-10T15:52:52.244Z,19.70
2023-05-10T15:55:23.505Z,19.40
2023-05-10T15:57:51.945Z,19.80
2023-05-10T16:00:24.848Z,19.90
2023-05-10T16:02:53.801Z,19.80
2023-05-10T16:05:24.489Z,19.80
2023-05-10T16:07:52.602Z,19.30
2023-05-10T16:10:20.703Z,19.10
2023-05-10T16:12:49.239Z,18.90
2023-05-10T16:15:20.767Z,19.20
2023-05-10T16:17:53.583Z,19.20
2023-05-10T16:20:21.955Z,19.30
2023-05-10T16:22:50.129Z,19.30
2023-05-10T16:25:18.520Z,19.30
2023-05-10T16:27:47.076Z,19.30
2023-05-10T16:30:15.556Z,19.20
2023-05-10T16:32:43.772Z,18.70
2023-05-10T16:35:13.815Z,18.70
2023-05-10T16:37:44.358Z,19.10
2023-05-10T16:40:12.876Z,18.80
2023-05-10T16:42:41.031Z,18.60
2023-05-10T16:45:09.972Z,18.70
2023-05-10T16:47:38.815Z,18.60
2023-05-10T16:50:08.975Z,18.50
2023-05-10T16:52:45.976Z,18.60
2023-05-10T16:55:14.381Z,18.80
2023-05-10T16:57:43.092Z,18.60
2023-05-10T17:00:12.752Z,18.30
2023-05-10T17:02:42.108Z,18.40
2023-05-10T17:05:11.087Z,18.10
2023-05-10T17:07:50.639Z,18.30
2023-05-10T17:10:19.324Z,18.20
2023-05-10T17:12:47.479Z,18.00
2023-05-10T17:15:18.700Z,18.10
2023-05-10T17:17:48.330Z,18.20
2023-05-10T17:20:16.747Z,18.10
2023-05-10T17:22:46.295Z,18.20
2023-05-10T17:25:14.625Z,17.70
2023-05-10T17:27:43.005Z,17.80
2023-05-10T17:30:11.721Z,17.50
2023-05-10T17:32:39.925Z,17.70
2023-05-10T17:35:08.455Z,17.60
2023-05-10T17:37:40.125Z,17.50
2023-05-10T17:40:10.867Z,17.60
2023-05-10T17:42:39.644Z,17.30
2023-05-10T17:45:08.541Z,17.40
2023-05-10T17:47:36.787Z,17.50
2023-05-10T17:50:07.211Z,17.40
2023-05-10T17:52:35.632Z,17.30
2023-05-10T17:55:03.919Z,17.40
2023-05-10T17:57:33.545Z,17.20
2023-05-10T18:00:04.298Z,17.20
2023-05-10T18:02:32.519Z,17.10
2023-05-10T18:05:01.815Z,16.90
2023-05-10T18:07:30.738Z,17.10
2023-05-10T18:10:02.296Z,16.80
2023-05-10T18:12:30.760Z,16.50
2023-05-10T18:15:00.779Z,16.20
2023-05-10T18:17:29.244Z,16.20
2023-05-10T18:19:57.764Z,16.20
2023-05-10T18:22:27.162Z,15.90
2023-05-10T18:24:55.361Z,15.80
2023-05-10T18:27:23.648Z,15.80
2023-05-10T18:29:52.281Z,15.70
2023-05-10T18:32:23.995Z,15.90
2023-05-10T18:34:53.938Z,15.90
2023-05-10T18:37:24.089Z,15.60
2023-05-10T18:39:52.455Z,15.50
2023-05-10T18:42:21.709Z,15.50
2023-05-10T18:44:50.046Z,15.40
2023-05-10T18:47:20.545Z,15.40
2023-05-10T18:49:50.252Z,15.00
2023-05-10T18:52:18.454Z,15.20
2023-05-10T18:54:46.687Z,15.00
2023-05-10T18:57:14.869Z,14.90
2023-05-10T18:59:43.348Z,14.60
2023-05-10T19:02:11.626Z,14.40
2023-05-10T19:04:39.994Z,14.40
2023-05-10T19:07:09.901Z,14.60
2023-05-10T19:09:41.260Z,14.40
2023-05-10T19:12:12.392Z,14.00
2023-05-10T19:14:40.944Z,14.00
2023-05-10T19:17:12.328Z,14.10
2023-05-10T19:19:40.781Z,13.90
2023-05-10T19:22:13.681Z,13.80
2023-05-10T19:24:42.268Z,13.80
2023-05-10T19:27:10.949Z,13.70
2023-05-10T19:29:39.217Z,13.50
2023-05-10T19:32:07.649Z,13.70
2023-05-10T19:34:35.955Z,13.60
2023-05-10T19:37:04.298Z,13.40
2023-05-10T19:39:34.016Z,13.30
2023-05-10T19:42:02.317Z,13.20
2023-05-10T19:44:30.555Z,13.30
2023-05-10T19:46:59.033Z,13.20
2023-05-10T19:49:27.772Z,13.30
2023-05-10T19:51:56.153Z,13.20
2023-05-10T19:54:24.313Z,13.20
2023-05-10T19:56:54.025Z,13.20
2023-05-10T19:59:22.222Z,12.90
2023-05-10T20:01:50.664Z,12.80
2023-05-10T20:04:18.932Z,13.00
2023-05-10T20:06:47.123Z,12.80
2023-05-10T20:09:16.200Z,12.90
2023-05-10T20:11:44.747Z,12.90
2023-05-10T20:14:16.907Z,12.70
2023-05-10T20:16:45.753Z,12.50
2023-05-10T20:19:14.084Z,12.60
2023-05-10T20:21:42.976Z,12.60
2023-05-10T20:24:11.360Z,12.40
2023-05-10T20:26:41.673Z,12.30
2023-05-10T20:29:13.300Z,12.20
2023-05-10T20:31:43.654Z,12.20
2023-05-10T20:34:14.900Z,12.20
2023-05-10T20:36:45.306Z,12.10
2023-05-10T20:39:14.332Z,12.00
2023-05-10T20:41:42.669Z,12.00
2023-05-10T20:44:10.974Z,12.00
2023-05-10T20:46:39.478Z,11.80
2023-05-10T20:49:09.664Z,11.70
2023-05-10T20:51:38.175Z,11.70
2023-05-10T20:54:07.098Z,11.70
2023-05-10T20:56:35.394Z,11.70
2023-05-10T20:59:18.542Z,11.50
2023-05-10T21:01:48.184Z,11.70
2023-05-10T21:04:18.455Z,11.70
2023-05-10T21:06:47.001Z,11.60
2023-05-10T21:09:15.207Z,11.40
2023-05-10T21:11:43.671Z,11.20
2023-05-10T21:14:12.015Z,11.30
2023-05-10T21:16:40.366Z,11.40
2023-05-10T21:19:08.841Z,11.40
2023-05-10T21:21:38.559Z,11.40
2023-05-10T21:24:07.264Z,11.30
2023-05-10T21:26:35.456Z,11.10
2023-05-10T21:29:04.996Z,10.90
2023-05-10T21:31:33.222Z,10.60
2023-05-10T21:34:01.513Z,10.40
2023-05-10T21:36:29.871Z,10.40
2023-05-10T21:38:59.393Z,10.40
2023-05-10T21:41:28.465Z,10.40
2023-05-10T21:43:56.637Z,10.10
2023-05-10T21:46:26.563Z,10.10
2023-05-10T21:48:54.695Z,10.10
2023-05-10T21:51:23.181Z,10.30
2023-05-10T21:53:53.875Z,10.20
2023-05-10T21:56:23.727Z,10.30
2023-05-10T21:58:52.169Z,10.10
2023-05-10T22:01:21.433Z,10.20
2023-05-10T22:03:49.678Z,10.30
2023-05-10T22:06:18.189Z,10.20
2023-05-10T22:08:46.351Z,10.30
2023-05-10T22:11:14.573Z,10.20
2023-05-10T22:13:44.192Z,10.40
2023-05-10T22:16:15.615Z,10.20
2023-05-10T22:18:44.208Z,10.20
2023-05-10T22:21:12.545Z,10.20
2023-05-10T22:23:40.631Z,10.00
2023-05-10T22:26:08.794Z,9.90
2023-05-10T22:28:37.079Z,9.90
2023-05-10T22:31:10.087Z,9.90
2023-05-10T22:33:38.388Z,9.80
2023-05-10T22:36:07.288Z,9.70
2023-05-10T22:38:38.758Z,9.70
2023-05-10T22:41:06.995Z,9.80
2023-05-10T22:43:35.150Z,9.60
2023-05-10T22:46:03.337Z,9.50
2023-05-10T22:48:35.639Z,9.60
2023-05-10T22:51:03.794Z,9.50
2023-05-10T22:53:31.993Z,9.60
2023-05-10T22:56:00.300Z,9.40
2023-05-10T22:58:28.593Z,9.40
2023-05-10T23:00:56.850Z,9.40
2023-05-10T23:03:25.799Z,9.40
2023-05-10T23:05:55.537Z,9.40
2023-05-10T23:08:23.890Z,9.40
2023-05-10T23:10:51.998Z,9.30
2023-05-10T23:13:21.306Z,9.40
2023-05-10T23:15:49.506Z,9.40
2023-05-10T23:18:18.204Z,9.40
2023-05-10T23:20:46.664Z,9.20
2023-05-10T23:23:16.789Z,9.20
2023-05-10T23:25:45.012Z,9.30
2023-05-10T23:28:13.146Z,9.00
2023-05-10T23:30:41.281Z,9.00
2023-05-10T23:33:09.745Z,9.10
2023-05-10T23:35:40.424Z,9.10
2023-05-10T23:38:08.569Z,8.90
2023-05-10T23:40:38.423Z,8.80
2023-05-10T23:43:06.940Z,9.10
2023-05-10T23:45:35.152Z,8.90
2023-05-10T23:48:03.403Z,8.80
2023-05-10T23:50:31.645Z,8.90
2023-05-10T23:52:59.766Z,9.00
2023-05-10T23:55:28.014Z,9.10
2023-05-10T23:57:57.828Z,8.80
